createdAt,value
2018-10-12T00:04:18.344Z,100969.95
2018-10-12T00:09:12.824Z,100970.46
2018-10-12T00:14:07.332Z,100975.30
2018-10-12T00:19:02.220Z,100976.88
2018-10-12T00:23:57.017Z,100993.41
2018-10-12T00:28:51.867Z,101003.25
2018-10-12T00:33:46.585Z,101013.91
2018-10-12T00:38:41.194Z,101015.38
2018-10-12T00:43:36.356Z,101013.03
2018-10-12T00:48:30.879Z,101016.06
2018-10-12T00:53:25.384Z,101022.16
2018-10-12T00:58:19.914Z,101033.19
2018-10-12T01:03:14.401Z,101035.71
2018-10-12T01:08:09.346Z,101027.16
2018-10-12T01:13:03.856Z,101030.17
2018-10-12T01:17:58.327Z,101030.89
2018-10-12T01:22:52.812Z,101032.22
2018-10-12T01:27:47.275Z,101030.37
2018-10-12T01:32:47.127Z,101022.98
2018-10-12T01:37:41.607Z,101011.25
2018-10-12T01:42:36.389Z,101024.99
2018-10-12T01:47:30.926Z,101021.14
2018-10-12T01:52:25.498Z,101030.84
2018-10-12T01:57:20.004Z,101044.59
2018-10-12T02:02:14.512Z,101053.19
2018-10-12T02:07:09.194Z,101051.20
2018-10-12T02:12:03.899Z,101054.10
2018-10-12T02:16:58.414Z,101055.55
2018-10-12T02:21:52.892Z,101061.34
2018-10-12T02:26:47.708Z,101058.80
2018-10-12T02:31:42.906Z,101065.83
2018-10-12T02:36:37.685Z,101066.94
2018-10-12T02:41:32.426Z,101070.83
2018-10-12T02:46:27.014Z,101073.02
2018-10-12T02:51:21.514Z,101086.97
2018-10-12T02:56:21.241Z,101089.75
2018-10-12T03:01:15.780Z,101087.83
2018-10-12T03:06:10.198Z,101103.95
2018-10-12T03:11:04.682Z,101116.46
2018-10-12T03:15:59.191Z,101118.59
2018-10-12T03:20:53.704Z,101127.00
2018-10-12T03:25:48.286Z,101115.89
2018-10-12T03:30:42.851Z,101131.56
2018-10-12T03:35:37.391Z,101142.73
2018-10-12T03:40:32.040Z,101144.41
2018-10-12T03:45:26.649Z,101147.03
2018-10-12T03:50:21.320Z,101146.24
2018-10-12T03:55:15.972Z,101150.70
2018-10-12T04:00:10.602Z,101157.48
2018-10-12T04:05:05.162Z,101161.91
2018-10-12T04:09:59.630Z,101173.15
2018-10-12T04:14:54.095Z,101178.10
2018-10-12T04:19:48.928Z,101184.08
2018-10-12T04:24:43.388Z,101191.30
2018-10-12T04:29:37.822Z,101197.33
2018-10-12T04:34:32.367Z,101209.01
2018-10-12T04:39:50.742Z,101215.74
2018-10-12T04:44:45.191Z,101224.98
2018-10-12T04:49:39.623Z,101231.01
2018-10-12T04:54:34.132Z,101239.45
2018-10-12T04:59:28.606Z,101244.75
2018-10-12T05:04:23.160Z,101252.11
2018-10-12T05:09:17.662Z,101262.13
2018-10-12T05:14:12.457Z,101262.34
2018-10-12T05:19:07.558Z,101256.00
2018-10-12T05:24:02.378Z,101264.69
2018-10-12T05:28:57.356Z,101275.68
2018-10-12T05:33:52.028Z,101284.15
2018-10-12T05:38:46.741Z,101289.02
2018-10-12T05:43:41.351Z,101300.55
2018-10-12T05:48:53.323Z,101302.25
2018-10-12T05:53:48.504Z,101304.23
2018-10-12T05:58:44.458Z,101298.33
2018-10-12T06:03:38.952Z,101305.91
2018-10-12T06:08:33.386Z,101312.05
2018-10-12T06:13:28.624Z,101311.30
2018-10-12T06:18:24.262Z,101320.27
2018-10-12T06:23:18.866Z,101314.21
2018-10-12T06:28:13.601Z,101336.97
2018-10-12T06:33:08.181Z,101354.44
2018-10-12T06:38:04.367Z,101377.68
2018-10-12T06:42:59.477Z,101381.91
2018-10-12T06:47:53.975Z,101392.84
2018-10-12T06:52:48.485Z,101405.08
2018-10-12T06:57:43.090Z,101403.89
2018-10-12T07:02:38.145Z,101413.37
2018-10-12T07:07:33.482Z,101412.48
2018-10-12T07:12:28.092Z,101422.72
2018-10-12T07:17:22.534Z,101427.14
2018-10-12T07:22:17.756Z,101427.67
2018-10-12T07:27:12.268Z,101438.50
2018-10-12T07:32:06.829Z,101444.25
2018-10-12T07:37:01.488Z,101453.88
2018-10-12T07:41:56.542Z,101455.11
2018-10-12T07:46:51.051Z,101463.95
2018-10-12T07:51:45.614Z,101464.32
2018-10-12T07:56:40.064Z,101479.08
2018-10-12T08:01:34.800Z,101475.08
2018-10-12T08:06:29.583Z,101472.41
2018-10-12T08:11:24.726Z,101478.74
2018-10-12T08:16:19.362Z,101471.50
2018-10-12T08:21:13.812Z,101482.31
2018-10-12T08:26:08.495Z,101488.41
2018-10-12T08:31:03.470Z,101494.61
2018-10-12T08:35:57.971Z,101495.95
2018-10-12T08:40:52.597Z,101499.33
2018-10-12T08:45:47.090Z,101507.50
2018-10-12T08:50:41.921Z,101499.90
2018-10-12T08:55:36.589Z,101510.77
2018-10-12T09:00:31.330Z,101512.24
2018-10-12T09:05:25.988Z,101512.80
2018-10-12T09:10:22.029Z,101521.25
2018-10-12T09:15:16.665Z,101516.32
2018-10-12T09:20:11.442Z,101514.08
2018-10-12T09:25:06.206Z,101507.92
2018-10-12T09:30:00.702Z,101505.48
2018-10-12T09:34:55.197Z,101504.06
2018-10-12T09:39:50.133Z,101501.59
2018-10-12T09:44:44.577Z,101508.05
2018-10-12T09:49:39.355Z,101506.34
2018-10-12T09:54:33.898Z,101497.69
2018-10-12T09:59:28.985Z,101497.16
2018-10-12T10:04:29.971Z,101493.41
2018-10-12T10:09:24.483Z,101488.83
2018-10-12T10:14:19.152Z,101486.53
2018-10-12T10:19:13.648Z,101472.78
2018-10-12T10:24:08.368Z,101469.96
2018-10-12T10:29:03.069Z,101462.58
2018-10-12T10:33:58.210Z,101460.15
2018-10-12T10:38:52.977Z,101452.73
2018-10-12T10:43:48.078Z,101444.03
2018-10-12T10:48:42.569Z,101459.38
2018-10-12T10:53:37.117Z,101451.34
2018-10-12T10:58:31.908Z,101440.98
2018-10-12T11:03:26.352Z,101439.44
2018-10-12T11:08:21.415Z,101437.73
2018-10-12T11:13:16.050Z,101422.60
2018-10-12T11:18:10.842Z,101422.76
2018-10-12T11:23:05.268Z,101424.59
2018-10-12T11:28:00.114Z,101423.24
2018-10-12T11:32:55.038Z,101414.59
2018-10-12T11:37:49.766Z,101412.69
2018-10-12T11:43:01.677Z,101425.72
2018-10-12T11:47:56.261Z,101416.00
2018-10-12T11:52:50.873Z,101417.80
2018-10-12T11:57:45.373Z,101406.70
2018-10-12T12:02:40.135Z,101403.21
2018-10-12T12:07:35.211Z,101404.84
2018-10-12T12:12:29.666Z,101409.30
2018-10-12T12:17:24.845Z,101402.56
2018-10-12T12:22:19.391Z,101406.97
2018-10-12T12:27:14.492Z,101394.15
2018-10-12T12:32:08.965Z,101399.77
2018-10-12T12:37:03.626Z,101397.73
2018-10-12T12:41:58.067Z,101390.60
2018-10-12T12:46:52.524Z,101392.30
2018-10-12T12:51:48.880Z,101400.94
2018-10-12T12:56:43.814Z,101405.20
2018-10-12T13:01:39.080Z,101400.29
2018-10-12T13:06:33.866Z,101407.05
2018-10-12T13:11:28.616Z,101398.73
2018-10-12T13:16:23.803Z,101404.34
2018-10-12T13:21:18.218Z,101408.07
2018-10-12T13:26:13.549Z,101414.00
2018-10-12T13:31:08.107Z,101405.19
2018-10-12T13:36:03.231Z,101412.66
2018-10-12T13:40:57.981Z,101425.20
2018-10-12T13:45:52.456Z,101429.43
2018-10-12T13:50:47.132Z,101435.20
2018-10-12T13:55:41.686Z,101436.37
2018-10-12T14:00:36.797Z,101434.17
2018-10-12T14:05:31.305Z,101437.75
2018-10-12T14:10:25.819Z,101439.28
2018-10-12T14:15:20.299Z,101443.84
2018-10-12T14:20:15.216Z,101446.89
2018-10-12T14:25:09.885Z,101441.13
2018-10-12T14:30:05.894Z,101445.36
2018-10-12T14:35:00.387Z,101440.11
2018-10-12T14:39:55.044Z,101441.97
2018-10-12T14:44:49.793Z,101448.08
2018-10-12T14:49:44.654Z,101440.95
2018-10-12T14:54:39.287Z,101436.51
2018-10-12T14:59:33.773Z,101436.32
2018-10-12T15:04:28.339Z,101436.95
2018-10-12T15:09:23.104Z,101429.00
2018-10-12T15:14:17.847Z,101434.06
2018-10-12T15:19:12.806Z,101427.63
2018-10-12T15:24:07.544Z,101440.31
2018-10-12T15:29:02.241Z,101439.78
2018-10-12T15:33:56.989Z,101436.71
2018-10-12T15:38:51.536Z,101434.34
2018-10-12T15:43:46.151Z,101438.69
2018-10-12T15:48:40.832Z,101440.42
2018-10-12T15:53:35.381Z,101453.53
2018-10-12T15:58:30.096Z,101454.97
2018-10-12T16:03:24.564Z,101445.53
2018-10-12T16:08:19.227Z,101448.08
2018-10-12T16:13:13.922Z,101454.36
2018-10-12T16:18:08.623Z,101452.52
2018-10-12T16:23:03.550Z,101457.08
2018-10-12T16:27:57.996Z,101462.97
2018-10-12T16:32:52.481Z,101472.00
2018-10-12T16:37:47.624Z,101484.05
2018-10-12T16:42:42.164Z,101482.15
2018-10-12T16:47:36.841Z,101487.14
2018-10-12T16:52:31.689Z,101492.59
2018-10-12T16:57:31.304Z,101492.62
2018-10-12T17:02:25.965Z,101485.23
2018-10-12T17:07:20.453Z,101490.44
2018-10-12T17:12:15.032Z,101496.98
2018-10-12T17:17:09.970Z,101493.41
2018-10-12T17:22:04.391Z,101496.12
2018-10-12T17:26:58.973Z,101493.38
2018-10-12T17:31:53.756Z,101499.30
2018-10-12T17:36:48.919Z,101498.89
2018-10-12T17:41:43.540Z,101500.76
2018-10-12T17:46:39.286Z,101512.59
2018-10-12T17:51:33.947Z,101515.09
2018-10-12T17:56:29.378Z,101507.63
2018-10-12T18:01:23.907Z,101511.67
2018-10-12T18:06:18.628Z,101529.34
2018-10-12T18:11:14.531Z,101532.22
2018-10-12T18:16:08.985Z,101523.62
2018-10-12T18:21:03.645Z,101526.54
2018-10-12T18:25:58.116Z,101524.45
2018-10-12T18:30:53.372Z,101523.45
2018-10-12T18:35:48.011Z,101530.32
2018-10-12T18:40:42.893Z,101534.78
2018-10-12T18:45:37.425Z,101544.12
2018-10-12T18:50:32.086Z,101545.02
2018-10-12T18:55:27.159Z,101553.13
2018-10-12T19:00:22.049Z,101556.02
2018-10-12T19:05:16.671Z,101560.73
2018-10-12T19:10:11.503Z,101562.86
2018-10-12T19:15:05.980Z,101568.69
2018-10-12T19:20:00.617Z,101573.66
2018-10-12T19:24:55.369Z,101579.20
2018-10-12T19:29:50.076Z,101570.71
2018-10-12T19:34:44.825Z,101573.06
2018-10-12T19:39:39.308Z,101574.20
2018-10-12T19:44:33.743Z,101580.70
2018-10-12T19:49:28.515Z,101586.86
2018-10-12T19:54:23.013Z,101584.56
2018-10-12T19:59:17.850Z,101589.84
2018-10-12T20:04:12.432Z,101596.97
2018-10-12T20:09:10.460Z,101595.84
2018-10-12T20:14:05.002Z,101594.27
2018-10-12T20:18:59.640Z,101600.14
2018-10-12T20:23:54.324Z,101599.68
2018-10-12T20:28:49.366Z,101603.57
2018-10-12T20:33:44.012Z,101601.61
2018-10-12T20:38:38.821Z,101600.91
2018-10-12T20:43:33.279Z,101601.51
2018-10-12T20:48:27.798Z,101602.85
2018-10-12T20:53:22.448Z,101595.05
2018-10-12T20:58:18.945Z,101600.29
2018-10-12T21:03:13.569Z,101601.28
2018-10-12T21:08:08.068Z,101603.34
2018-10-12T21:13:02.683Z,101602.50
2018-10-12T21:17:57.197Z,101604.34
2018-10-12T21:22:51.871Z,101598.47
2018-10-12T21:27:46.340Z,101599.79
2018-10-12T21:32:40.965Z,101599.80
2018-10-12T21:37:35.554Z,101598.83
2018-10-12T21:42:30.068Z,101594.30
2018-10-12T21:47:24.554Z,101594.55
2018-10-12T21:52:19.317Z,101609.75
2018-10-12T21:57:13.804Z,101597.31
2018-10-12T22:02:08.604Z,101598.57
2018-10-12T22:07:03.064Z,101597.46
2018-10-12T22:11:57.574Z,101599.53
2018-10-12T22:16:52.201Z,101600.66
2018-10-12T22:21:46.695Z,101599.56
2018-10-12T22:26:41.282Z,101596.74
2018-10-12T22:31:37.804Z,101582.95
2018-10-12T22:36:32.496Z,101579.53
2018-10-12T22:41:27.110Z,101579.92
2018-10-12T22:46:21.677Z,101576.37
2018-10-12T22:51:16.605Z,101574.05
2018-10-12T22:56:11.055Z,101571.88
2018-10-12T23:01:05.560Z,101575.27
2018-10-12T23:06:00.044Z,101573.44
2018-10-12T23:10:54.544Z,101570.41
2018-10-12T23:15:49.242Z,101577.47
2018-10-12T23:20:43.738Z,101567.45
2018-10-12T23:25:38.226Z,101568.45
2018-10-12T23:30:32.682Z,101563.45
2018-10-12T23:35:27.167Z,101553.69
2018-10-12T23:40:21.600Z,101549.06
2018-10-12T23:45:16.167Z,101556.87
2018-10-12T23:50:10.613Z,101561.63
2018-10-12T23:55:05.305Z,101559.14
